Waynesville, OH (45068)

8:41 AM EDT on October 21, 2014 (GMT -0400)
Rivers Edge | Change Station
CLOSE
Current Station
Personal Weather Station
Location: Corwin, OH
Elevation: 840 ft
Nearby Weather Stations

Elev 840 ft 39.53 °N, 84.06 °W | Updated 9 seconds ago

Overcast
Overcast
48.7 °F
Feels Like 47 °F
N
5.0
Wind Variable Wind from WNW
Gusts 9.0 mph

Today
High -- | Low -- °F
--% Chance of Precip.
Yesterday
High -- | Low -- °F
Precip. -- in
7:52 AM 6:48 PM
Waning Crescent, 6% visible
Pressure 29.97 in
Visibility 10.0 miles
Clouds Overcast 6000 ft
Windchill 47 °F
Dew Point 46 °F
Humidity 89%
Rainfall 0.00 in
Snow Depth Not available.
UV 0 out of 12
Pollen 1.80 out of 12
Ozone Good
PM2.5 Moderate
Flu Activity Sporadic
METAR KMGY 211153Z AUTO 33010KT 10SM OVC060 09/07 A2996 RMK AO2 SLP147 70010 T00940067 10117 20094 53014

More Conditions Fewer Conditions

Pressure 29.97 in
Visibility 10.0 miles
Clouds Overcast 6000 ft
Windchill 47 °F
Dew Point 46 °F
Humidity 89%
Rainfall 0.00 in
Snow Depth Not available.
UV 0 out of 12
Pollen 1.80 out of 12
Ozone Good
PM2.5 Moderate
Flu Activity Sporadic
METAR KMGY 211153Z AUTO 33010KT 10SM OVC060 09/07 A2996 RMK AO2 SLP147 70010 T00940067 10117 20094 53014

More Conditions Fewer Conditions

10-Day Weather Forecast

Almanac

Astronomy

Oct. 21, 2014 Rise Set
Actual Time 7:52 AM EDT 6:48 PM EDT
Civil Twilight 7:25 AM EDT 7:15 PM EDT
Nautical Twilight 6:53 AM EDT 7:47 PM EDT
Astronomical Twilight 6:22 AM EDT 8:18 PM EDT
Moon 5:36 AM EDT 5:41 PM EDT
Length of Visible Light 11h 50m
Length of Day
10h 56m
Tomorrow will be 2m 26s shorter.
Waning Crescent, 6% of the Moon is Illuminated
Today
Waning Crescent
Oct 23
New
Oct 30
First Quarter
Nov 6
Full
Nov 14
Last Quarter

Today's Extremes

State Highs State Lows

Community

WunderPhotos

Upload Photos

1,763,649 photos uploaded!

Nearby

Air Quality

  Air Quality AQ Index Pollutant
Yesterday Good
PM10
Yesterday Good
OZONE
Current Moderate
PM2.5
Current Good
OZONE
Tuesday Moderate
PM2.5
Tuesday Good
OZONE

Snow Depth

Station Depth Elevation
No new snow has been reported.

Earthquake Activity

City Distance Mag. Time & Date
No recent earthquake activity has been reported nearby.
Minimum magnitude displayed is 2.5.

Coastal Water Temperatures

Place Temperature
No Stations Reporting

Nearby Weather Stations